sensor_id;sensor_type;location;lat;lon;timestamp;temperature;humidity
3017;DHT22;1518;52.408;13.060;2022-07-01T00:00:09;22.90;99.90
3017;DHT22;1518;52.408;13.060;2022-07-01T00:02:59;22.90;99.90
3017;DHT22;1518;52.408;13.060;2022-07-01T00:05:47;22.90;99.90
3017;DHT22;1518;52.408;13.060;2022-07-01T00:08:36;22.80;99.90
3017;DHT22;1518;52.408;13.060;2022-07-01T00:11:24;22.80;99.90
3017;DHT22;1518;52.408;13.060;2022-07-01T00:14:15;22.80;99.90
3017;DHT22;1518;52.408;13.060;2022-07-01T00:17:03;22.80;99.90
3017;DHT22;1518;52.408;13.060;2022-07-01T00:19:53;22.70;99.90
3017;DHT22;1518;52.408;13.060;2022-07-01T00:22:41;22.70;99.90
3017;DHT22;1518;52.408;13.060;2022-07-01T00:25:29;22.60;99.90
3017;DHT22;1518;52.408;13.060;2022-07-01T00:28:17;22.60;99.90
3017;DHT22;1518;52.408;13.060;2022-07-01T00:31:06;22.50;99.90
3017;DHT22;1518;52.408;13.060;2022-07-01T00:33:54;22.50;99.90
3017;DHT22;1518;52.408;13.060;2022-07-01T00:36:43;22.50;99.90
3017;DHT22;1518;52.408;13.060;2022-07-01T00:39:31;22.40;99.90
3017;DHT22;1518;52.408;13.060;2022-07-01T00:42:21;22.30;99.90
3017;DHT22;1518;52.408;13.060;2022-07-01T00:45:10;22.40;99.90
3017;DHT22;1518;52.408;13.060;2022-07-01T00:47:58;22.30;99.90
3017;DHT22;1518;52.408;13.060;2022-07-01T00:50:47;22.30;99.90
3017;DHT22;1518;52.408;13.060;2022-07-01T00:53:37;22.30;99.90
3017;DHT22;1518;52.408;13.060;2022-07-01T00:56:25;22.30;99.90
3017;DHT22;1518;52.408;13.060;2022-07-01T00:59:14;22.20;99.90
3017;DHT22;1518;52.408;13.060;2022-07-01T01:02:03;22.20;99.90
3017;DHT22;1518;52.408;13.060;2022-07-01T01:04:52;22.20;99.90
3017;DHT22;1518;52.408;13.060;2022-07-01T01:07:40;22.20;99.90
3017;DHT22;1518;52.408;13.060;2022-07-01T01:10:30;22.10;99.90
3017;DHT22;1518;52.408;13.060;2022-07-01T01:13:18;22.10;99.90
3017;DHT22;1518;52.408;13.060;2022-07-01T01:16:07;22.00;99.90
3017;DHT22;1518;52.408;13.060;2022-07-01T01:18:55;22.00;99.90
3017;DHT22;1518;52.408;13.060;2022-07-01T01:21:45;22.00;99.90
3017;DHT22;1518;52.408;13.060;2022-07-01T01:24:34;22.00;99.90
3017;DHT22;1518;52.408;13.060;2022-07-01T01:27:23;21.90;99.90
3017;DHT22;1518;52.408;13.060;2022-07-01T01:30:12;22.00;99.90
3017;DHT22;1518;52.408;13.060;2022-07-01T01:33:00;21.90;99.90
3017;DHT22;1518;52.408;13.060;2022-07-01T01:35:48;21.90;99.90
3017;DHT22;1518;52.408;13.060;2022-07-01T01:38:37;21.90;99.90
3017;DHT22;1518;52.408;13.060;2022-07-01T01:41:26;21.90;99.90
3017;DHT22;1518;52.408;13.060;2022-07-01T01:44:14;21.90;99.90
3017;DHT22;1518;52.408;13.060;2022-07-01T01:47:02;21.80;99.90
3017;DHT22;1518;52.408;13.060;2022-07-01T01:49:51;21.80;99.90
3017;DHT22;1518;52.408;13.060;2022-07-01T01:52:39;21.80;99.90
3017;DHT22;1518;52.408;13.060;2022-07-01T01:55:31;21.70;99.90
3017;DHT22;1518;52.408;13.060;2022-07-01T01:58:19;21.70;99.90
3017;DHT22;1518;52.408;13.060;2022-07-01T02:01:08;21.70;99.90
3017;DHT22;1518;52.408;13.060;2022-07-01T02:03:57;21.70;99.90
3017;DHT22;1518;52.408;13.060;2022-07-01T02:06:46;21.60;99.90
3017;DHT22;1518;52.408;13.060;2022-07-01T02:09:34;21.60;99.90
3017;DHT22;1518;52.408;13.060;2022-07-01T02:12:24;21.60;99.90
3017;DHT22;1518;52.408;13.060;2022-07-01T02:15:12;21.60;99.90
3017;DHT22;1518;52.408;13.060;2022-07-01T02:18:00;21.50;99.90
3017;DHT22;1518;52.408;13.060;2022-07-01T02:20:48;21.50;99.90
3017;DHT22;1518;52.408;13.060;2022-07-01T02:23:36;21.50;99.90
3017;DHT22;1518;52.408;13.060;2022-07-01T02:26:24;21.50;99.90
3017;DHT22;1518;52.408;13.060;2022-07-01T02:29:14;21.40;99.90
3017;DHT22;1518;52.408;13.060;2022-07-01T02:32:02;21.40;99.90
3017;DHT22;1518;52.408;13.060;2022-07-01T02:34:51;21.30;99.90
3017;DHT22;1518;52.408;13.060;2022-07-01T02:37:39;21.30;99.90
3017;DHT22;1518;52.408;13.060;2022-07-01T02:40:27;21.30;99.90
3017;DHT22;1518;52.408;13.060;2022-07-01T02:43:15;21.30;99.90
3017;DHT22;1518;52.408;13.060;2022-07-01T02:46:05;21.30;99.90
3017;DHT22;1518;52.408;13.060;2022-07-01T02:48:53;21.30;99.90
3017;DHT22;1518;52.408;13.060;2022-07-01T02:51:41;21.30;99.90
3017;DHT22;1518;52.408;13.060;2022-07-01T02:54:29;21.30;99.90
3017;DHT22;1518;52.408;13.060;2022-07-01T02:57:17;21.30;99.90
3017;DHT22;1518;52.408;13.060;2022-07-01T03:00:07;21.30;99.90
3017;DHT22;1518;52.408;13.060;2022-07-01T03:02:57;21.30;99.90
3017;DHT22;1518;52.408;13.060;2022-07-01T03:05:45;21.30;99.90
3017;DHT22;1518;52.408;13.060;2022-07-01T03:08:35;21.30;99.90
3017;DHT22;1518;52.408;13.060;2022-07-01T03:11:24;21.30;99.90
3017;DHT22;1518;52.408;13.060;2022-07-01T03:14:12;21.30;99.90
3017;DHT22;1518;52.408;13.060;2022-07-01T03:17:00;21.30;99.90
3017;DHT22;1518;52.408;13.060;2022-07-01T03:19:50;21.30;99.90
3017;DHT22;1518;52.408;13.060;2022-07-01T03:22:42;21.30;99.90
3017;DHT22;1518;52.408;13.060;2022-07-01T03:25:30;21.30;99.90
3017;DHT22;1518;52.408;13.060;2022-07-01T03:28:18;21.30;99.90
3017;DHT22;1518;52.408;13.060;2022-07-01T03:31:08;21.30;99.90
3017;DHT22;1518;52.408;13.060;2022-07-01T03:33:56;21.30;99.90
3017;DHT22;1518;52.408;13.060;2022-07-01T03:36:45;21.30;99.90
3017;DHT22;1518;52.408;13.060;2022-07-01T03:39:35;21.30;99.90
3017;DHT22;1518;52.408;13.060;2022-07-01T03:42:24;21.40;99.90
3017;DHT22;1518;52.408;13.060;2022-07-01T03:45:12;21.40;99.90
3017;DHT22;1518;52.408;13.060;2022-07-01T03:48:00;21.40;99.90
3017;DHT22;1518;52.408;13.060;2022-07-01T03:50:49;21.40;99.90
3017;DHT22;1518;52.408;13.060;2022-07-01T03:53:38;21.50;99.90
3017;DHT22;1518;52.408;13.060;2022-07-01T03:56:56;21.60;99.90
3017;DHT22;1518;52.408;13.060;2022-07-01T03:59:44;21.60;99.90
3017;DHT22;1518;52.408;13.060;2022-07-01T04:02:33;21.60;99.90
3017;DHT22;1518;52.408;13.060;2022-07-01T04:05:21;21.60;99.90
3017;DHT22;1518;52.408;13.060;2022-07-01T04:08:09;21.70;99.90
3017;DHT22;1518;52.408;13.060;2022-07-01T04:11:00;21.70;99.90
3017;DHT22;1518;52.408;13.060;2022-07-01T04:13:48;21.70;99.90
3017;DHT22;1518;52.408;13.060;2022-07-01T04:16:38;21.80;99.90
3017;DHT22;1518;52.408;13.060;2022-07-01T04:19:26;21.90;99.90
3017;DHT22;1518;52.408;13.060;2022-07-01T04:22:14;22.10;99.90
3017;DHT22;1518;52.408;13.060;2022-07-01T04:25:20;22.30;99.90
3017;DHT22;1518;52.408;13.060;2022-07-01T04:28:09;22.70;99.90
3017;DHT22;1518;52.408;13.060;2022-07-01T04:30:58;22.80;99.90
3017;DHT22;1518;52.408;13.060;2022-07-01T04:33:46;23.00;99.90
3017;DHT22;1518;52.408;13.060;2022-07-01T04:36:35;23.20;99.90
3017;DHT22;1518;52.408;13.060;2022-07-01T04:39:23;23.30;99.90
3017;DHT22;1518;52.408;13.060;2022-07-01T04:42:12;23.30;99.90
3017;DHT22;1518;52.408;13.060;2022-07-01T04:45:04;23.30;99.90
3017;DHT22;1518;52.408;13.060;2022-07-01T04:47:53;23.30;99.90
3017;DHT22;1518;52.408;13.060;2022-07-01T04:50:41;23.30;99.90
3017;DHT22;1518;52.408;13.060;2022-07-01T04:53:31;23.30;99.90
3017;DHT22;1518;52.408;13.060;2022-07-01T04:56:20;23.30;99.90
3017;DHT22;1518;52.408;13.060;2022-07-01T04:59:08;23.30;99.90
3017;DHT22;1518;52.408;13.060;2022-07-01T05:01:58;23.20;99.90
3017;DHT22;1518;52.408;13.060;2022-07-01T05:04:46;23.20;99.90
3017;DHT22;1518;52.408;13.060;2022-07-01T05:07:34;23.10;99.90
3017;DHT22;1518;52.408;13.060;2022-07-01T05:10:23;23.10;99.90
3017;DHT22;1518;52.408;13.060;2022-07-01T05:13:11;23.00;99.90
3017;DHT22;1518;52.408;13.060;2022-07-01T05:15:59;22.90;99.90
3017;DHT22;1518;52.408;13.060;2022-07-01T05:18:49;22.90;99.90
3017;DHT22;1518;52.408;13.060;2022-07-01T05:21:55;22.90;99.90
3017;DHT22;1518;52.408;13.060;2022-07-01T05:24:47;22.90;99.90
3017;DHT22;1518;52.408;13.060;2022-07-01T05:27:35;23.10;99.90
3017;DHT22;1518;52.408;13.060;2022-07-01T05:30:23;23.20;99.90
3017;DHT22;1518;52.408;13.060;2022-07-01T05:33:11;23.30;99.90
3017;DHT22;1518;52.408;13.060;2022-07-01T05:36:01;23.30;99.90
3017;DHT22;1518;52.408;13.060;2022-07-01T05:38:49;23.40;99.90
3017;DHT22;1518;52.408;13.060;2022-07-01T05:41:37;23.50;99.90
3017;DHT22;1518;52.408;13.060;2022-07-01T05:44:25;23.60;99.90
3017;DHT22;1518;52.408;13.060;2022-07-01T05:47:14;23.80;99.90
3017;DHT22;1518;52.408;13.060;2022-07-01T05:50:02;23.80;99.90
3017;DHT22;1518;52.408;13.060;2022-07-01T05:52:52;23.90;99.90
3017;DHT22;1518;52.408;13.060;2022-07-01T05:55:40;24.00;99.90
3017;DHT22;1518;52.408;13.060;2022-07-01T05:58:29;24.10;99.90
3017;DHT22;1518;52.408;13.060;2022-07-01T06:01:17;24.20;99.90
3017;DHT22;1518;52.408;13.060;2022-07-01T06:04:05;24.10;99.90
3017;DHT22;1518;52.408;13.060;2022-07-01T06:06:54;23.80;99.90
3017;DHT22;1518;52.408;13.060;2022-07-01T06:09:43;23.70;99.90
3017;DHT22;1518;52.408;13.060;2022-07-01T06:12:32;23.70;99.90
3017;DHT22;1518;52.408;13.060;2022-07-01T06:15:20;23.80;99.90
3017;DHT22;1518;52.408;13.060;2022-07-01T06:18:09;23.80;99.90
3017;DHT22;1518;52.408;13.060;2022-07-01T06:20:57;23.80;99.90
3017;DHT22;1518;52.408;13.060;2022-07-01T06:23:45;23.80;99.90
3017;DHT22;1518;52.408;13.060;2022-07-01T06:26:35;23.80;99.90
3017;DHT22;1518;52.408;13.060;2022-07-01T06:29:23;23.90;99.90
3017;DHT22;1518;52.408;13.060;2022-07-01T06:32:11;24.10;99.90
3017;DHT22;1518;52.408;13.060;2022-07-01T06:35:00;24.20;99.90
3017;DHT22;1518;52.408;13.060;2022-07-01T06:37:48;24.20;99.90
3017;DHT22;1518;52.408;13.060;2022-07-01T06:40:42;24.20;99.90
3017;DHT22;1518;52.408;13.060;2022-07-01T06:43:52;24.40;99.90
3017;DHT22;1518;52.408;13.060;2022-07-01T06:46:40;24.50;99.90
3017;DHT22;1518;52.408;13.060;2022-07-01T06:49:28;24.50;99.90
3017;DHT22;1518;52.408;13.060;2022-07-01T06:52:17;24.20;99.90
3017;DHT22;1518;52.408;13.060;2022-07-01T06:55:05;24.50;99.90
3017;DHT22;1518;52.408;13.060;2022-07-01T06:57:54;24.60;99.90
3017;DHT22;1518;52.408;13.060;2022-07-01T07:00:43;24.80;99.90
3017;DHT22;1518;52.408;13.060;2022-07-01T07:03:32;25.00;99.90
3017;DHT22;1518;52.408;13.060;2022-07-01T07:06:20;25.10;99.90
3017;DHT22;1518;52.408;13.060;2022-07-01T07:09:08;25.20;99.90
3017;DHT22;1518;52.408;13.060;2022-07-01T07:11:57;25.20;99.90
3017;DHT22;1518;52.408;13.060;2022-07-01T07:14:45;25.30;99.90
3017;DHT22;1518;52.408;13.060;2022-07-01T07:17:35;25.30;99.90
3017;DHT22;1518;52.408;13.060;2022-07-01T07:20:27;25.40;99.90
3017;DHT22;1518;52.408;13.060;2022-07-01T07:23:17;25.30;99.90
3017;DHT22;1518;52.408;13.060;2022-07-01T07:26:09;25.00;99.90
3017;DHT22;1518;52.408;13.060;2022-07-01T07:28:57;25.10;99.90
3017;DHT22;1518;52.408;13.060;2022-07-01T07:31:45;25.30;99.90
3017;DHT22;1518;52.408;13.060;2022-07-01T07:34:34;25.60;99.90
3017;DHT22;1518;52.408;13.060;2022-07-01T07:37:24;25.80;99.90
3017;DHT22;1518;52.408;13.060;2022-07-01T07:40:14;25.80;99.90
3017;DHT22;1518;52.408;13.060;2022-07-01T07:43:05;26.00;99.90
3017;DHT22;1518;52.408;13.060;2022-07-01T07:45:54;26.20;99.90
3017;DHT22;1518;52.408;13.060;2022-07-01T07:48:42;26.30;99.90
3017;DHT22;1518;52.408;13.060;2022-07-01T07:51:32;26.30;99.90
3017;DHT22;1518;52.408;13.060;2022-07-01T07:54:20;26.30;99.90
3017;DHT22;1518;52.408;13.060;2022-07-01T07:57:09;26.40;99.90
3017;DHT22;1518;52.408;13.060;2022-07-01T07:59:57;26.50;99.90
3017;DHT22;1518;52.408;13.060;2022-07-01T08:02:46;26.40;99.90
3017;DHT22;1518;52.408;13.060;2022-07-01T08:05:35;26.30;99.90
3017;DHT22;1518;52.408;13.060;2022-07-01T08:08:25;26.40;99.90
3017;DHT22;1518;52.408;13.060;2022-07-01T08:11:14;26.30;99.90
3017;DHT22;1518;52.408;13.060;2022-07-01T08:14:02;26.20;99.90
3017;DHT22;1518;52.408;13.060;2022-07-01T08:16:50;26.10;99.90
3017;DHT22;1518;52.408;13.060;2022-07-01T08:19:39;25.80;99.90
3017;DHT22;1518;52.408;13.060;2022-07-01T08:22:27;25.90;99.90
3017;DHT22;1518;52.408;13.060;2022-07-01T08:25:17;26.00;99.90
3017;DHT22;1518;52.408;13.060;2022-07-01T08:28:05;26.10;99.90
3017;DHT22;1518;52.408;13.060;2022-07-01T08:30:53;26.30;99.90
3017;DHT22;1518;52.408;13.060;2022-07-01T08:33:42;26.50;99.90
3017;DHT22;1518;52.408;13.060;2022-07-01T08:36:30;26.40;99.90
3017;DHT22;1518;52.408;13.060;2022-07-01T08:39:18;26.10;99.90
3017;DHT22;1518;52.408;13.060;2022-07-01T08:42:08;25.70;99.90
3017;DHT22;1518;52.408;13.060;2022-07-01T08:44:57;25.30;99.90
3017;DHT22;1518;52.408;13.060;2022-07-01T08:47:52;25.10;99.90
3017;DHT22;1518;52.408;13.060;2022-07-01T08:50:44;25.00;99.90
3017;DHT22;1518;52.408;13.060;2022-07-01T08:53:32;24.30;99.90
3017;DHT22;1518;52.408;13.060;2022-07-01T08:56:20;23.60;99.90
3017;DHT22;1518;52.408;13.060;2022-07-01T08:59:36;23.10;99.90
3017;DHT22;1518;52.408;13.060;2022-07-01T09:02:24;22.50;99.90
3017;DHT22;1518;52.408;13.060;2022-07-01T09:05:14;22.10;99.90
3017;DHT22;1518;52.408;13.060;2022-07-01T09:08:06;21.60;99.90
3017;DHT22;1518;52.408;13.060;2022-07-01T09:10:54;21.00;99.90
3017;DHT22;1518;52.408;13.060;2022-07-01T09:13:43;20.00;99.90
3017;DHT22;1518;52.408;13.060;2022-07-01T09:16:39;19.10;99.90
3017;DHT22;1518;52.408;13.060;2022-07-01T09:19:30;18.60;99.90
3017;DHT22;1518;52.408;13.060;2022-07-01T09:22:19;18.20;99.90
3017;DHT22;1518;52.408;13.060;2022-07-01T09:25:12;18.10;99.90
3017;DHT22;1518;52.408;13.060;2022-07-01T09:28:07;18.10;99.90
3017;DHT22;1518;52.408;13.060;2022-07-01T09:30:57;18.10;99.90
3017;DHT22;1518;52.408;13.060;2022-07-01T09:34:02;18.10;99.90
3017;DHT22;1518;52.408;13.060;2022-07-01T09:36:55;18.00;99.90
3017;DHT22;1518;52.408;13.060;2022-07-01T09:39:46;17.80;99.90
3017;DHT22;1518;52.408;13.060;2022-07-01T09:42:44;17.80;99.90
3017;DHT22;1518;52.408;13.060;2022-07-01T09:45:34;17.60;99.90
3017;DHT22;1518;52.408;13.060;2022-07-01T09:48:24;17.50;99.90
3017;DHT22;1518;52.408;13.060;2022-07-01T09:51:15;17.50;99.90
3017;DHT22;1518;52.408;13.060;2022-07-01T09:54:04;17.50;99.90
3017;DHT22;1518;52.408;13.060;2022-07-01T09:56:52;17.40;99.90
3017;DHT22;1518;52.408;13.060;2022-07-01T09:59:40;17.30;99.90
3017;DHT22;1518;52.408;13.060;2022-07-01T10:02:28;17.30;99.90
3017;DHT22;1518;52.408;13.060;2022-07-01T10:05:20;17.20;99.90
3017;DHT22;1518;52.408;13.060;2022-07-01T10:08:42;17.20;99.90
3017;DHT22;1518;52.408;13.060;2022-07-01T10:12:03;17.20;99.90
3017;DHT22;1518;52.408;13.060;2022-07-01T10:14:57;16.90;99.90
3017;DHT22;1518;52.408;13.060;2022-07-01T10:17:49;17.00;99.90
3017;DHT22;1518;52.408;13.060;2022-07-01T10:20:38;17.00;99.90
3017;DHT22;1518;52.408;13.060;2022-07-01T10:23:37;17.00;99.90
3017;DHT22;1518;52.408;13.060;2022-07-01T10:26:29;17.00;99.90
3017;DHT22;1518;52.408;13.060;2022-07-01T10:29:28;16.90;99.90
3017;DHT22;1518;52.408;13.060;2022-07-01T10:32:27;16.90;99.90
3017;DHT22;1518;52.408;13.060;2022-07-01T10:35:36;17.10;99.90
3017;DHT22;1518;52.408;13.060;2022-07-01T10:38:25;16.90;99.90
3017;DHT22;1518;52.408;13.060;2022-07-01T10:41:24;17.00;99.90
3017;DHT22;1518;52.408;13.060;2022-07-01T10:44:13;16.90;99.90
3017;DHT22;1518;52.408;13.060;2022-07-01T10:47:06;16.80;99.90
3017;DHT22;1518;52.408;13.060;2022-07-01T10:49:59;16.80;99.90
3017;DHT22;1518;52.408;13.060;2022-07-01T10:53:00;16.70;99.90
3017;DHT22;1518;52.408;13.060;2022-07-01T10:55:51;16.70;99.90
3017;DHT22;1518;52.408;13.060;2022-07-01T10:58:45;16.60;99.90
3017;DHT22;1518;52.408;13.060;2022-07-01T11:01:34;16.60;99.90
3017;DHT22;1518;52.408;13.060;2022-07-01T11:04:24;16.60;99.90
3017;DHT22;1518;52.408;13.060;2022-07-01T11:07:12;16.60;99.90
3017;DHT22;1518;52.408;13.060;2022-07-01T11:10:02;16.40;99.90
3017;DHT22;1518;52.408;13.060;2022-07-01T11:12:50;16.20;99.90
3017;DHT22;1518;52.408;13.060;2022-07-01T11:15:40;16.20;99.90
3017;DHT22;1518;52.408;13.060;2022-07-01T11:18:30;16.50;99.90
3017;DHT22;1518;52.408;13.060;2022-07-01T11:21:18;16.60;99.90
3017;DHT22;1518;52.408;13.060;2022-07-01T11:24:08;16.60;99.90
3017;DHT22;1518;52.408;13.060;2022-07-01T11:27:00;16.70;99.90
3017;DHT22;1518;52.408;13.060;2022-07-01T11:29:55;16.80;99.90
3017;DHT22;1518;52.408;13.060;2022-07-01T11:32:46;16.90;99.90
3017;DHT22;1518;52.408;13.060;2022-07-01T11:35:34;17.00;99.90
3017;DHT22;1518;52.408;13.060;2022-07-01T11:38:45;16.90;99.90
3017;DHT22;1518;52.408;13.060;2022-07-01T11:41:55;16.80;99.90
3017;DHT22;1518;52.408;13.060;2022-07-01T11:44:44;17.00;99.90
3017;DHT22;1518;52.408;13.060;2022-07-01T11:47:32;17.00;99.90
3017;DHT22;1518;52.408;13.060;2022-07-01T11:50:22;17.20;99.90
3017;DHT22;1518;52.408;13.060;2022-07-01T11:53:10;17.20;99.90
3017;DHT22;1518;52.408;13.060;2022-07-01T11:55:59;17.40;99.90
3017;DHT22;1518;52.408;13.060;2022-07-01T11:58:49;17.50;99.90
3017;DHT22;1518;52.408;13.060;2022-07-01T12:01:37;17.60;99.90
3017;DHT22;1518;52.408;13.060;2022-07-01T12:04:26;17.80;99.90
3017;DHT22;1518;52.408;13.060;2022-07-01T12:07:21;17.80;99.90
3017;DHT22;1518;52.408;13.060;2022-07-01T12:10:09;17.90;99.90
3017;DHT22;1518;52.408;13.060;2022-07-01T12:12:57;18.00;99.90
3017;DHT22;1518;52.408;13.060;2022-07-01T12:15:46;17.80;99.90
3017;DHT22;1518;52.408;13.060;2022-07-01T12:18:34;17.70;99.90
3017;DHT22;1518;52.408;13.060;2022-07-01T12:21:24;17.60;99.90
3017;DHT22;1518;52.408;13.060;2022-07-01T12:24:15;17.50;99.90
3017;DHT22;1518;52.408;13.060;2022-07-01T12:27:06;17.80;99.90
3017;DHT22;1518;52.408;13.060;2022-07-01T12:29:54;18.20;99.90
3017;DHT22;1518;52.408;13.060;2022-07-01T12:32:43;18.40;99.90
3017;DHT22;1518;52.408;13.060;2022-07-01T12:35:31;18.40;99.90
3017;DHT22;1518;52.408;13.060;2022-07-01T12:38:23;18.20;99.90
3017;DHT22;1518;52.408;13.060;2022-07-01T12:41:28;18.20;99.90
3017;DHT22;1518;52.408;13.060;2022-07-01T12:44:26;18.30;99.90
3017;DHT22;1518;52.408;13.060;2022-07-01T12:47:24;17.90;99.90
3017;DHT22;1518;52.408;13.060;2022-07-01T12:50:16;17.80;99.90
3017;DHT22;1518;52.408;13.060;2022-07-01T12:53:08;17.90;99.90
3017;DHT22;1518;52.408;13.060;2022-07-01T12:55:57;17.80;99.90
3017;DHT22;1518;52.408;13.060;2022-07-01T12:58:49;18.00;99.90
3017;DHT22;1518;52.408;13.060;2022-07-01T13:01:39;18.00;99.90
3017;DHT22;1518;52.408;13.060;2022-07-01T13:04:28;17.90;99.90
3017;DHT22;1518;52.408;13.060;2022-07-01T13:07:16;17.60;99.90
3017;DHT22;1518;52.408;13.060;2022-07-01T13:10:06;17.40;99.90
3017;DHT22;1518;52.408;13.060;2022-07-01T13:12:54;17.20;99.90
3017;DHT22;1518;52.408;13.060;2022-07-01T13:15:45;17.10;99.90
3017;DHT22;1518;52.408;13.060;2022-07-01T13:18:33;17.20;99.90
3017;DHT22;1518;52.408;13.060;2022-07-01T13:21:21;17.20;99.90
3017;DHT22;1518;52.408;13.060;2022-07-01T13:24:09;17.20;99.90
3017;DHT22;1518;52.408;13.060;2022-07-01T13:27:17;17.50;99.90
3017;DHT22;1518;52.408;13.060;2022-07-01T13:30:07;17.50;99.90
3017;DHT22;1518;52.408;13.060;2022-07-01T13:32:57;17.30;99.90
3017;DHT22;1518;52.408;13.060;2022-07-01T13:35:46;17.20;99.90
3017;DHT22;1518;52.408;13.060;2022-07-01T13:38:35;17.10;99.90
3017;DHT22;1518;52.408;13.060;2022-07-01T13:41:23;17.10;99.90
3017;DHT22;1518;52.408;13.060;2022-07-01T13:44:11;17.00;99.90
3017;DHT22;1518;52.408;13.060;2022-07-01T13:47:00;17.10;99.90
3017;DHT22;1518;52.408;13.060;2022-07-01T13:49:50;17.10;99.90
3017;DHT22;1518;52.408;13.060;2022-07-01T13:52:38;17.00;99.90
3017;DHT22;1518;52.408;13.060;2022-07-01T13:55:33;17.00;99.90
3017;DHT22;1518;52.408;13.060;2022-07-01T13:58:21;16.90;99.90
3017;DHT22;1518;52.408;13.060;2022-07-01T14:01:09;16.80;99.90
3017;DHT22;1518;52.408;13.060;2022-07-01T14:03:57;16.80;99.90
3017;DHT22;1518;52.408;13.060;2022-07-01T14:06:47;16.80;99.90
3017;DHT22;1518;52.408;13.060;2022-07-01T14:09:35;16.80;99.90
3017;DHT22;1518;52.408;13.060;2022-07-01T14:12:24;16.80;99.90
3017;DHT22;1518;52.408;13.060;2022-07-01T14:15:14;16.80;99.90
3017;DHT22;1518;52.408;13.060;2022-07-01T14:18:03;16.70;99.90
3017;DHT22;1518;52.408;13.060;2022-07-01T14:20:51;16.70;99.90
3017;DHT22;1518;52.408;13.060;2022-07-01T14:23:40;16.70;99.90
3017;DHT22;1518;52.408;13.060;2022-07-01T14:26:29;16.60;99.90
3017;DHT22;1518;52.408;13.060;2022-07-01T14:29:17;16.60;99.90
3017;DHT22;1518;52.408;13.060;2022-07-01T14:32:06;16.60;99.90
3017;DHT22;1518;52.408;13.060;2022-07-01T14:34:55;16.60;99.90
3017;DHT22;1518;52.408;13.060;2022-07-01T14:37:44;16.60;99.90
3017;DHT22;1518;52.408;13.060;2022-07-01T14:40:33;16.70;99.90
3017;DHT22;1518;52.408;13.060;2022-07-01T14:43:23;16.80;99.90
3017;DHT22;1518;52.408;13.060;2022-07-01T14:46:11;16.80;99.90
3017;DHT22;1518;52.408;13.060;2022-07-01T14:49:01;16.90;99.90
3017;DHT22;1518;52.408;13.060;2022-07-01T14:51:49;17.00;99.90
3017;DHT22;1518;52.408;13.060;2022-07-01T14:54:38;17.10;99.90
3017;DHT22;1518;52.408;13.060;2022-07-01T14:57:28;17.20;99.90
3017;DHT22;1518;52.408;13.060;2022-07-01T15:00:18;17.30;99.90
3017;DHT22;1518;52.408;13.060;2022-07-01T15:03:06;17.30;99.90
3017;DHT22;1518;52.408;13.060;2022-07-01T15:05:54;17.40;99.90
3017;DHT22;1518;52.408;13.060;2022-07-01T15:08:42;17.40;99.90
3017;DHT22;1518;52.408;13.060;2022-07-01T15:11:30;17.40;99.90
3017;DHT22;1518;52.408;13.060;2022-07-01T15:14:21;17.50;99.90
3017;DHT22;1518;52.408;13.060;2022-07-01T15:17:09;17.60;99.90
3017;DHT22;1518;52.408;13.060;2022-07-01T15:19:58;17.70;99.90
3017;DHT22;1518;52.408;13.060;2022-07-01T15:22:46;17.80;99.90
3017;DHT22;1518;52.408;13.060;2022-07-01T15:25:34;17.70;99.90
3017;DHT22;1518;52.408;13.060;2022-07-01T15:28:22;17.70;99.90
3017;DHT22;1518;52.408;13.060;2022-07-01T15:31:13;17.70;99.90
3017;DHT22;1518;52.408;13.060;2022-07-01T15:34:21;17.70;99.90
3017;DHT22;1518;52.408;13.060;2022-07-01T15:37:09;17.70;99.90
3017;DHT22;1518;52.408;13.060;2022-07-01T15:39:57;17.80;99.90
3017;DHT22;1518;52.408;13.060;2022-07-01T15:42:50;17.70;99.90
3017;DHT22;1518;52.408;13.060;2022-07-01T15:45:38;17.60;99.90
3017;DHT22;1518;52.408;13.060;2022-07-01T15:48:27;17.50;99.90
3017;DHT22;1518;52.408;13.060;2022-07-01T15:51:15;17.50;99.90
3017;DHT22;1518;52.408;13.060;2022-07-01T15:54:05;17.40;99.90
3017;DHT22;1518;52.408;13.060;2022-07-01T15:56:53;17.30;99.90
3017;DHT22;1518;52.408;13.060;2022-07-01T15:59:41;17.30;99.90
3017;DHT22;1518;52.408;13.060;2022-07-01T16:02:30;17.30;99.90
3017;DHT22;1518;52.408;13.060;2022-07-01T16:05:19;17.20;99.90
3017;DHT22;1518;52.408;13.060;2022-07-01T16:08:11;17.20;99.90
3017;DHT22;1518;52.408;13.060;2022-07-01T16:11:06;17.10;99.90
3017;DHT22;1518;52.408;13.060;2022-07-01T16:13:56;17.10;99.90
3017;DHT22;1518;52.408;13.060;2022-07-01T16:16:45;17.10;99.90
3017;DHT22;1518;52.408;13.060;2022-07-01T16:19:36;17.10;99.90
3017;DHT22;1518;52.408;13.060;2022-07-01T16:22:26;17.20;99.90
3017;DHT22;1518;52.408;13.060;2022-07-01T16:25:17;17.20;99.90
3017;DHT22;1518;52.408;13.060;2022-07-01T16:28:07;17.20;99.90
3017;DHT22;1518;52.408;13.060;2022-07-01T16:30:57;17.10;99.90
3017;DHT22;1518;52.408;13.060;2022-07-01T16:33:47;17.20;99.90
3017;DHT22;1518;52.408;13.060;2022-07-01T16:36:40;17.20;99.90
3017;DHT22;1518;52.408;13.060;2022-07-01T16:39:32;17.20;99.90
3017;DHT22;1518;52.408;13.060;2022-07-01T16:42:22;17.30;99.90
3017;DHT22;1518;52.408;13.060;2022-07-01T16:45:11;17.30;99.90
3017;DHT22;1518;52.408;13.060;2022-07-01T16:48:00;17.40;99.90
3017;DHT22;1518;52.408;13.060;2022-07-01T16:50:52;17.30;99.90
3017;DHT22;1518;52.408;13.060;2022-07-01T16:53:43;17.30;99.90
3017;DHT22;1518;52.408;13.060;2022-07-01T16:56:36;17.30;99.90
3017;DHT22;1518;52.408;13.060;2022-07-01T16:59:28;17.20;99.90
3017;DHT22;1518;52.408;13.060;2022-07-01T17:02:16;17.20;99.90
3017;DHT22;1518;52.408;13.060;2022-07-01T17:05:06;17.20;99.90
3017;DHT22;1518;52.408;13.060;2022-07-01T17:07:54;17.20;99.90
3017;DHT22;1518;52.408;13.060;2022-07-01T17:10:42;17.30;99.90
3017;DHT22;1518;52.408;13.060;2022-07-01T17:13:33;17.40;99.90
3017;DHT22;1518;52.408;13.060;2022-07-01T17:16:23;17.40;99.90
3017;DHT22;1518;52.408;13.060;2022-07-01T17:19:11;17.40;99.90
3017;DHT22;1518;52.408;13.060;2022-07-01T17:21:59;17.40;99.90
3017;DHT22;1518;52.408;13.060;2022-07-01T17:25:07;17.30;99.90
3017;DHT22;1518;52.408;13.060;2022-07-01T17:28:20;17.30;99.90
3017;DHT22;1518;52.408;13.060;2022-07-01T17:31:22;17.30;99.90
3017;DHT22;1518;52.408;13.060;2022-07-01T17:34:14;17.30;99.90
3017;DHT22;1518;52.408;13.060;2022-07-01T17:37:02;17.30;99.90
3017;DHT22;1518;52.408;13.060;2022-07-01T17:39:52;17.30;99.90
3017;DHT22;1518;52.408;13.060;2022-07-01T17:42:42;17.30;99.90
3017;DHT22;1518;52.408;13.060;2022-07-01T17:45:32;17.30;99.90
3017;DHT22;1518;52.408;13.060;2022-07-01T17:48:26;17.40;99.90
3017;DHT22;1518;52.408;13.060;2022-07-01T17:51:18;17.40;99.90
3017;DHT22;1518;52.408;13.060;2022-07-01T17:54:07;17.40;99.90
3017;DHT22;1518;52.408;13.060;2022-07-01T17:56:56;17.40;99.90
3017;DHT22;1518;52.408;13.060;2022-07-01T17:59:46;17.50;99.90
3017;DHT22;1518;52.408;13.060;2022-07-01T18:02:37;17.50;99.90
3017;DHT22;1518;52.408;13.060;2022-07-01T18:05:28;17.60;99.90
3017;DHT22;1518;52.408;13.060;2022-07-01T18:08:17;17.60;99.90
3017;DHT22;1518;52.408;13.060;2022-07-01T18:11:10;17.50;99.90